sensor_id;sensor_type;location;lat;lon;timestamp;P1;P2;P0
31163;PMS5003;17796;49.296;-117.656;2022-08-11T00:04:05;30;27;
31163;PMS5003;17796;49.296;-117.656;2022-08-11T00:19:11;21;16;
31163;PMS5003;17796;49.296;-117.656;2022-08-11T00:34:18;13;13;
31163;PMS5003;17796;49.296;-117.656;2022-08-11T00:49:37;55;54;
31163;PMS5003;17796;49.296;-117.656;2022-08-11T01:06:05;33;32;
31163;PMS5003;17796;49.296;-117.656;2022-08-11T01:22:22;17;16;
31163;PMS5003;17796;49.296;-117.656;2022-08-11T01:38:09;21;21;
31163;PMS5003;17796;49.296;-117.656;2022-08-11T01:53:30;24;23;
31163;PMS5003;17796;49.296;-117.656;2022-08-11T02:08:44;21;21;
31163;PMS5003;17796;49.296;-117.656;2022-08-11T02:23:51;27;25;
31163;PMS5003;17796;49.296;-117.656;2022-08-11T02:39:02;13;13;
31163;PMS5003;17796;49.296;-117.656;2022-08-11T02:54:16;15;15;
31163;PMS5003;17796;49.296;-117.656;2022-08-11T03:09:29;32;32;
31163;PMS5003;17796;49.296;-117.656;2022-08-11T03:24:52;27;26;
31163;PMS5003;17796;49.296;-117.656;2022-08-11T03:40:03;34;34;
31163;PMS5003;17796;49.296;-117.656;2022-08-11T03:55:18;23;20;
31163;PMS5003;17796;49.296;-117.656;2022-08-11T04:10:39;18;18;
31163;PMS5003;17796;49.296;-117.656;2022-08-11T04:26:27;15;13;
31163;PMS5003;17796;49.296;-117.656;2022-08-11T04:41:54;21;21;
31163;PMS5003;17796;49.296;-117.656;2022-08-11T04:57:07;21;20;
31163;PMS5003;17796;49.296;-117.656;2022-08-11T05:12:25;26;22;
31163;PMS5003;17796;49.296;-117.656;2022-08-11T05:27:37;20;18;
31163;PMS5003;17796;49.296;-117.656;2022-08-11T05:42:49;18;17;
31163;PMS5003;17796;49.296;-117.656;2022-08-11T05:57:56;19;19;
31163;PMS5003;17796;49.296;-117.656;2022-08-11T06:13:01;19;16;
31163;PMS5003;17796;49.296;-117.656;2022-08-11T06:28:07;17;16;
31163;PMS5003;17796;49.296;-117.656;2022-08-11T06:43:19;14;14;
31163;PMS5003;17796;49.296;-117.656;2022-08-11T06:58:27;19;19;
31163;PMS5003;17796;49.296;-117.656;2022-08-11T07:13:34;18;16;
31163;PMS5003;17796;49.296;-117.656;2022-08-11T07:28:43;17;17;
31163;PMS5003;17796;49.296;-117.656;2022-08-11T07:43:59;19;19;
31163;PMS5003;17796;49.296;-117.656;2022-08-11T07:59:04;20;19;
31163;PMS5003;17796;49.296;-117.656;2022-08-11T08:14:08;18;12;
31163;PMS5003;17796;49.296;-117.656;2022-08-11T08:29:12;16;15;
31163;PMS5003;17796;49.296;-117.656;2022-08-11T08:44:18;18;16;
31163;PMS5003;17796;49.296;-117.656;2022-08-11T08:59:23;13;13;
31163;PMS5003;17796;49.296;-117.656;2022-08-11T09:14:34;15;15;
31163;PMS5003;17796;49.296;-117.656;2022-08-11T09:29:38;13;13;
31163;PMS5003;17796;49.296;-117.656;2022-08-11T09:44:42;17;17;
31163;PMS5003;17796;49.296;-117.656;2022-08-11T09:59:47;23;18;
31163;PMS5003;17796;49.296;-117.656;2022-08-11T10:14:56;21;19;
31163;PMS5003;17796;49.296;-117.656;2022-08-11T10:30:01;21;20;
31163;PMS5003;17796;49.296;-117.656;2022-08-11T10:45:06;24;22;
31163;PMS5003;17796;49.296;-117.656;2022-08-11T11:00:11;26;21;
31163;PMS5003;17796;49.296;-117.656;2022-08-11T11:15:17;19;17;
31163;PMS5003;17796;49.296;-117.656;2022-08-11T11:30:23;19;19;
31163;PMS5003;17796;49.296;-117.656;2022-08-11T11:45:30;20;19;
31163;PMS5003;17796;49.296;-117.656;2022-08-11T12:00:35;30;27;
31163;PMS5003;17796;49.296;-117.656;2022-08-11T12:15:38;21;20;
31163;PMS5003;17796;49.296;-117.656;2022-08-11T12:30:43;21;17;
31163;PMS5003;17796;49.296;-117.656;2022-08-11T12:45:47;20;18;
31163;PMS5003;17796;49.296;-117.656;2022-08-11T13:00:52;15;15;
31163;PMS5003;17796;49.296;-117.656;2022-08-11T13:15:55;16;13;
31163;PMS5003;17796;49.296;-117.656;2022-08-11T13:31:00;24;20;
31163;PMS5003;17796;49.296;-117.656;2022-08-11T13:46:04;15;15;
31163;PMS5003;17796;49.296;-117.656;2022-08-11T14:01:09;24;21;
31163;PMS5003;17796;49.296;-117.656;2022-08-11T14:16:24;24;23;
31163;PMS5003;17796;49.296;-117.656;2022-08-11T14:31:31;21;19;
31163;PMS5003;17796;49.296;-117.656;2022-08-11T14:46:35;27;26;
31163;PMS5003;17796;49.296;-117.656;2022-08-11T15:01:40;32;32;
31163;PMS5003;17796;49.296;-117.656;2022-08-11T15:16:44;50;45;
31163;PMS5003;17796;49.296;-117.656;2022-08-11T15:31:48;35;32;
31163;PMS5003;17796;49.296;-117.656;2022-08-11T15:46:55;45;37;
31163;PMS5003;17796;49.296;-117.656;2022-08-11T16:02:01;35;33;
31163;PMS5003;17796;49.296;-117.656;2022-08-11T16:17:10;31;28;
31163;PMS5003;17796;49.296;-117.656;2022-08-11T16:32:19;31;28;
31163;PMS5003;17796;49.296;-117.656;2022-08-11T16:47:24;30;28;
31163;PMS5003;17796;49.296;-117.656;2022-08-11T17:02:32;23;23;
31163;PMS5003;17796;49.296;-117.656;2022-08-11T17:17:39;33;29;
31163;PMS5003;17796;49.296;-117.656;2022-08-11T17:32:46;28;26;
31163;PMS5003;17796;49.296;-117.656;2022-08-11T17:47:50;37;34;
31163;PMS5003;17796;49.296;-117.656;2022-08-11T18:02:55;33;28;
31163;PMS5003;17796;49.296;-117.656;2022-08-11T18:18:00;34;31;
31163;PMS5003;17796;49.296;-117.656;2022-08-11T18:33:06;38;36;
31163;PMS5003;17796;49.296;-117.656;2022-08-11T18:48:15;37;35;
31163;PMS5003;17796;49.296;-117.656;2022-08-11T19:03:21;37;35;
31163;PMS5003;17796;49.296;-117.656;2022-08-11T19:18:25;31;30;
31163;PMS5003;17796;49.296;-117.656;2022-08-11T19:33:31;30;29;
31163;PMS5003;17796;49.296;-117.656;2022-08-11T19:48:35;37;33;
31163;PMS5003;17796;49.296;-117.656;2022-08-11T20:03:39;35;34;
31163;PMS5003;17796;49.296;-117.656;2022-08-11T20:18:44;32;32;
31163;PMS5003;17796;49.296;-117.656;2022-08-11T20:33:48;35;32;
31163;PMS5003;17796;49.296;-117.656;2022-08-11T20:48:53;40;39;
31163;PMS5003;17796;49.296;-117.656;2022-08-11T21:03:59;46;41;
31163;PMS5003;17796;49.296;-117.656;2022-08-11T21:19:09;58;55;
31163;PMS5003;17796;49.296;-117.656;2022-08-11T21:34:17;48;44;
31163;PMS5003;17796;49.296;-117.656;2022-08-11T21:49:23;36;33;
31163;PMS5003;17796;49.296;-117.656;2022-08-11T22:04:30;38;33;
31163;PMS5003;17796;49.296;-117.656;2022-08-11T22:19:36;36;34;
31163;PMS5003;17796;49.296;-117.656;2022-08-11T22:34:42;34;29;
31163;PMS5003;17796;49.296;-117.656;2022-08-11T22:49:49;39;31;
31163;PMS5003;17796;49.296;-117.656;2022-08-11T23:04:56;37;35;
31163;PMS5003;17796;49.296;-117.656;2022-08-11T23:20:00;38;33;
31163;PMS5003;17796;49.296;-117.656;2022-08-11T23:35:05;33;32;
31163;PMS5003;17796;49.296;-117.656;2022-08-11T23:50:10;36;31;
